Meath Environmental Platform

Observations for Trim Patrick St

Time AQI Temp °C Hum % Pres Pa CO μg/m³ H₂S μg/m³ NO μg/m³ NO₂ μg/m³ O₃ μg/m³ SO₂ μg/m³ PM1 μg/m³ PM2.5 μg/m³ PM10 μg/m³
Thursday 6 August 2026
06:24 2 12.6 78 38,460 0.38 0 3.46 13.86 30.71 0 2.86 6.73 7.4
06:23 2 12.6 79 38,460 0.41 0 3.42 10.34 26.51 0 2 5.28 5.81
06:22 2 12.6 79 38,460 0.35 0 3.46 9.64 29.45 0 2 4.59 5.05
06:21 2 12.6 79 38,460 0.35 0 3.43 12.59 28.64 0 2 4.61 5.07
06:20 2 12.6 78 38,460 0.34 0 3.49 13.85 38.87 0 2.86 5.32 5.85
06:19 2 12.6 78 38,460 0.34 0 3.44 12.58 28.29 0 2 5.32 5.85
06:18 2 12.6 79 38,460 0.34 0.35 3.44 14.73 41.4 0 2.86 7.39 8.13
06:16 2 12.6 79 38,460 0.34 0.3 3.55 13.31 27.07 0 2.86 5.29 5.82
06:15 2 12.6 78 38,460 0.35 0.97 3.55 15.05 30.75 0 2.86 6.04 6.64
06:14 2 12.5 78 38,460 0.35 0.22 3.59 15.65 41.05 0 2.86 6.02 6.62
06:12 2 12.5 78 38,460 0.36 0.81 3.74 16.74 38.12 0 2 6.06 6.66
06:09 2 12.5 79 38,460 0.35 0 3.61 12.45 35.57 0 2 5.28 5.81
06:08 2 12.5 79 38,460 0.35 0 3.59 11.72 25.37 0 2 6.68 7.35
06:07 2 12.5 79 38,460 0.35 0 3.55 13.57 28.42 0 2 6.01 6.61
06:06 2 12.5 78 38,460 0.35 0 3.62 10.35 31.25 0 2.86 6.79 7.47
06:05 2 12.4 79 38,460 0.36 0.86 3.63 13.27 26.27 0 2 6.02 6.62
06:04 2 12.5 79 38,460 0.34 0.27 3.61 19.6 54.62 0 2 5.28 5.81
06:03 2 12.5 79 38,460 0.35 0 3.55 10.06 27.3 0 2.86 6.68 7.35
06:02 2 12.5 79 38,460 0.35 0.89 3.46 16.86 47.99 0 2.86 6.02 6.62
06:01 2 12.4 79 38,460 0.36 0 3.45 12.63 27.25 0 2.86 5.27 5.79